SWR139 VHHH-LSZH
Flight info
| Callsign | SWR139 |
|---|---|
| Flight time | N/A |
| Altitude | 34100 |
| Route | BEKOL A461 SHL W22 TEPID W24 OSNOV G586 QP B330 MAMSI/K0928S1100 B330 ELKAL W179 IGNAK/K0928S1070 W179 WFX/K0928S1100 W179 OMBON W195 VIDEK/K0913S1130 W195 LAXAL/K0909S1100 W195 IDOPA W197 ANDIM B215 NIXUK/K0904S1160 B215 IBANO G470 AKLAS W192 FKG A368 SARIN/K0898F380 N161 BAGED/K0891F400 N161 GASBI/N0489F400 N161 LEYLA N644 ADEKI DCT BADIR DCT LAGAS DCT NOLGA UN61 TBN UM11 CRM UL746 ODERO DCT LUGEB DCT NERDI DCT INVED DCT GOTAR DCT ERKIR DCT KPT L856 NEGRA |
| Aircraft | A359/H-SDE2E3GHIJ3J4J5LM1ORWXY/LB1D1 |
Departure
| Time | N/A |
|---|---|
| Airport | Hong Kong International Airport (VHHH) |
Arrival
| Time | 2026-05-04 09:27 |
|---|---|
| Airport | Zürich Airport (LSZH) |
| Time | Latitude | Longitude | Altitude | Speed | Heading |
|---|---|---|---|---|---|
| 2026-05-04 06:03 | 41.37981 | 42.58413 | 37265 ft | 463 kts | 256° |
| 2026-05-04 06:03 | 41.37458 | 42.54211 | 37576 ft | 461 kts | 256° |
| 2026-05-04 06:05 | 41.33745 | 42.24768 | 39112 ft | 462 kts | 256° |
| 2026-05-04 06:05 | 41.32673 | 42.16357 | 39377 ft | 464 kts | 256° |
| 2026-05-04 06:05 | 41.32132 | 42.12130 | 39556 ft | 464 kts | 256° |
| 2026-05-04 06:06 | 41.31589 | 42.07894 | 39683 ft | 465 kts | 256° |
| 2026-05-04 06:06 | 41.30494 | 41.99382 | 39780 ft | 466 kts | 256° |
| 2026-05-04 06:07 | 41.29394 | 41.90892 | 39775 ft | 465 kts | 256° |
| 2026-05-04 06:07 | 41.28282 | 41.82500 | 39781 ft | 464 kts | 256° |
| 2026-05-04 06:08 | 41.27152 | 41.74049 | 39775 ft | 464 kts | 256° |
| 2026-05-04 06:08 | 41.26024 | 41.65605 | 39777 ft | 464 kts | 256° |
| 2026-05-04 06:09 | 41.24888 | 41.57144 | 39777 ft | 465 kts | 256° |
| 2026-05-04 06:11 | 41.20280 | 41.23292 | 39795 ft | 465 kts | 256° |
| 2026-05-04 06:13 | 41.15572 | 40.89483 | 39803 ft | 466 kts | 256° |
| 2026-05-04 06:14 | 41.11369 | 40.59921 | 39805 ft | 467 kts | 255° |
| 2026-05-04 06:15 | 41.10148 | 40.51442 | 39806 ft | 468 kts | 255° |
| 2026-05-04 06:15 | 41.08920 | 40.42961 | 39807 ft | 468 kts | 255° |
| 2026-05-04 06:16 | 41.07687 | 40.34491 | 39811 ft | 468 kts | 255° |
| 2026-05-04 06:16 | 41.06445 | 40.26005 | 39810 ft | 469 kts | 255° |
| 2026-05-04 06:17 | 41.05198 | 40.17528 | 39817 ft | 469 kts | 255° |
| 2026-05-04 06:17 | 41.03943 | 40.09040 | 39813 ft | 470 kts | 255° |
| 2026-05-04 06:18 | 41.02680 | 40.00548 | 39829 ft | 470 kts | 255° |
| 2026-05-04 06:20 | 41.00762 | 39.66003 | 39827 ft | 483 kts | 273° |
| 2026-05-04 06:21 | 41.02940 | 39.43890 | 39826 ft | 485 kts | 273° |
| 2026-05-04 06:22 | 41.03771 | 39.35027 | 39819 ft | 485 kts | 272° |
| 2026-05-04 06:25 | 41.09348 | 38.74138 | 39833 ft | 490 kts | 273° |
| 2026-05-04 06:26 | 41.10152 | 38.65154 | 39829 ft | 491 kts | 273° |
| 2026-05-04 06:26 | 41.10926 | 38.56201 | 39823 ft | 492 kts | 272° |
| 2026-05-04 06:27 | 41.12790 | 38.33596 | 39822 ft | 494 kts | 272° |
| 2026-05-04 06:28 | 41.13536 | 38.24518 | 39821 ft | 495 kts | 272° |
| 2026-05-04 06:28 | 41.14282 | 38.15434 | 39825 ft | 496 kts | 272° |
| 2026-05-04 06:29 | 41.15020 | 38.06325 | 39825 ft | 497 kts | 272° |
| 2026-05-04 06:29 | 41.15751 | 37.97203 | 39830 ft | 498 kts | 272° |
| 2026-05-04 06:30 | 41.16478 | 37.88068 | 39821 ft | 498 kts | 272° |
| 2026-05-04 06:30 | 41.17231 | 37.78977 | 39818 ft | 498 kts | 273° |
| 2026-05-04 06:31 | 41.18018 | 37.69837 | 39815 ft | 499 kts | 273° |
| 2026-05-04 06:31 | 41.18794 | 37.60685 | 39815 ft | 498 kts | 273° |
| 2026-05-04 06:33 | 41.21332 | 37.24044 | 39800 ft | 500 kts | 272° |
| 2026-05-04 06:34 | 41.22029 | 37.14846 | 39797 ft | 500 kts | 272° |
| 2026-05-04 06:34 | 41.22750 | 37.05647 | 39796 ft | 501 kts | 272° |
| 2026-05-04 06:36 | 41.25544 | 36.68731 | 39801 ft | 502 kts | 272° |
| 2026-05-04 06:37 | 41.26223 | 36.59491 | 39801 ft | 502 kts | 272° |
| 2026-05-04 06:37 | 41.27726 | 36.50388 | 39800 ft | 507 kts | 285° |
| 2026-05-04 06:38 | 41.29929 | 36.41470 | 39798 ft | 508 kts | 286° |
| 2026-05-04 06:40 | 41.38992 | 36.05889 | 39773 ft | 509 kts | 286° |
| 2026-05-04 06:40 | 41.41231 | 35.96945 | 39774 ft | 509 kts | 286° |
| 2026-05-04 06:41 | 41.43469 | 35.87980 | 39772 ft | 510 kts | 286° |
| 2026-05-04 06:41 | 41.45698 | 35.79016 | 39774 ft | 510 kts | 286° |
| 2026-05-04 06:42 | 41.47923 | 35.70039 | 39774 ft | 510 kts | 285° |
| 2026-05-04 06:44 | 41.56716 | 35.34202 | 39772 ft | 507 kts | 286° |
| 2026-05-04 06:44 | 41.58897 | 35.25235 | 39775 ft | 507 kts | 286° |
| 2026-05-04 06:45 | 41.61065 | 35.16278 | 39776 ft | 506 kts | 286° |
| 2026-05-04 06:45 | 41.63223 | 35.07324 | 39779 ft | 506 kts | 286° |
| 2026-05-04 06:46 | 41.65374 | 34.98363 | 39780 ft | 505 kts | 286° |
| 2026-05-04 06:46 | 41.67514 | 34.89422 | 39784 ft | 505 kts | 286° |
| 2026-05-04 06:48 | 41.75991 | 34.53654 | 39780 ft | 504 kts | 286° |
| 2026-05-04 06:50 | 41.84363 | 34.17754 | 39789 ft | 506 kts | 286° |
| 2026-05-04 06:51 | 41.86446 | 34.08732 | 39785 ft | 506 kts | 286° |
| 2026-05-04 06:51 | 41.88525 | 33.99687 | 39787 ft | 507 kts | 286° |
| 2026-05-04 06:52 | 41.90598 | 33.90637 | 39790 ft | 507 kts | 286° |
| 2026-05-04 06:52 | 41.92650 | 33.81641 | 39784 ft | 507 kts | 286° |
| 2026-05-04 06:53 | 41.94709 | 33.72578 | 39791 ft | 507 kts | 286° |
| 2026-05-04 06:53 | 41.96668 | 33.63476 | 39798 ft | 506 kts | 283° |
| 2026-05-04 06:54 | 41.98383 | 33.54299 | 39805 ft | 506 kts | 283° |
| 2026-05-04 06:54 | 42.00083 | 33.45115 | 39810 ft | 506 kts | 283° |
| 2026-05-04 06:55 | 42.01814 | 33.35936 | 39819 ft | 507 kts | 283° |
| 2026-05-04 06:55 | 42.03566 | 33.26724 | 39817 ft | 508 kts | 284° |
| 2026-05-04 06:57 | 42.10775 | 32.89897 | 39834 ft | 510 kts | 285° |
| 2026-05-04 06:58 | 42.12674 | 32.80698 | 39837 ft | 510 kts | 285° |
| 2026-05-04 06:58 | 42.14549 | 32.71479 | 39844 ft | 510 kts | 285° |
| 2026-05-04 06:59 | 42.16395 | 32.62318 | 39849 ft | 509 kts | 285° |
| 2026-05-04 06:59 | 42.18258 | 32.53050 | 39859 ft | 509 kts | 285° |
| 2026-05-04 07:01 | 42.25547 | 32.16215 | 39863 ft | 508 kts | 285° |
| 2026-05-04 07:02 | 42.27352 | 32.06989 | 39872 ft | 508 kts | 285° |
| 2026-05-04 07:02 | 42.29149 | 31.97760 | 39880 ft | 508 kts | 285° |
| 2026-05-04 07:03 | 42.30940 | 31.88536 | 39882 ft | 508 kts | 285° |
| 2026-05-04 07:03 | 42.32726 | 31.79309 | 39882 ft | 507 kts | 285° |
| 2026-05-04 07:04 | 42.34506 | 31.70065 | 39878 ft | 507 kts | 285° |
| 2026-05-04 07:04 | 42.36277 | 31.60829 | 39882 ft | 508 kts | 285° |
| 2026-05-04 07:05 | 42.38040 | 31.51591 | 39888 ft | 507 kts | 285° |
| 2026-05-04 07:05 | 42.39782 | 31.42417 | 39894 ft | 507 kts | 285° |
| 2026-05-04 07:06 | 42.42403 | 31.28533 | 39902 ft | 507 kts | 285° |
| 2026-05-04 07:07 | 42.44135 | 31.19291 | 39904 ft | 506 kts | 285° |
| 2026-05-04 07:09 | 42.50964 | 30.82385 | 39920 ft | 506 kts | 285° |
| 2026-05-04 07:09 | 42.52659 | 30.73130 | 39925 ft | 506 kts | 285° |
| 2026-05-04 07:10 | 42.54346 | 30.63854 | 39931 ft | 506 kts | 285° |
| 2026-05-04 07:12 | 42.61158 | 30.28397 | 39959 ft | 505 kts | 296° |
| 2026-05-04 07:12 | 42.63501 | 30.22987 | 39957 ft | 501 kts | 309° |
| 2026-05-04 07:12 | 42.65691 | 30.19312 | 39962 ft | 500 kts | 312° |
| 2026-05-04 07:13 | 42.69524 | 30.13367 | 39961 ft | 500 kts | 314° |
| 2026-05-04 07:13 | 42.74160 | 30.06380 | 39967 ft | 500 kts | 314° |
| 2026-05-04 07:14 | 42.85729 | 29.88706 | 39976 ft | 500 kts | 313° |
| 2026-05-04 07:15 | 42.90338 | 29.81591 | 39985 ft | 500 kts | 313° |
| 2026-05-04 07:15 | 42.94935 | 29.74477 | 39986 ft | 500 kts | 313° |
| 2026-05-04 07:16 | 42.99532 | 29.67356 | 39992 ft | 500 kts | 313° |
| 2026-05-04 07:16 | 43.04099 | 29.60258 | 39993 ft | 500 kts | 313° |
| 2026-05-04 07:17 | 43.08688 | 29.53112 | 40001 ft | 500 kts | 313° |
| 2026-05-04 07:17 | 43.13279 | 29.45944 | 40003 ft | 500 kts | 313° |
| 2026-05-04 07:18 | 43.17862 | 29.38772 | 40007 ft | 500 kts | 313° |
| 2026-05-04 07:18 | 43.22443 | 29.31583 | 40011 ft | 501 kts | 313° |
| 2026-05-04 07:19 | 43.27023 | 29.24377 | 40016 ft | 501 kts | 313° |
| 2026-05-04 07:19 | 43.31594 | 29.17167 | 40018 ft | 501 kts | 313° |
| 2026-05-04 07:20 | 43.36166 | 29.09938 | 40022 ft | 501 kts | 313° |
| 2026-05-04 07:20 | 43.40708 | 29.02743 | 40023 ft | 501 kts | 313° |
| 2026-05-04 07:22 | 43.58954 | 28.73638 | 40021 ft | 501 kts | 312° |
| 2026-05-04 07:23 | 43.63500 | 28.66341 | 40021 ft | 501 kts | 312° |
| 2026-05-04 07:23 | 43.68035 | 28.59045 | 40019 ft | 501 kts | 312° |
| 2026-05-04 07:24 | 43.72515 | 28.51662 | 40019 ft | 501 kts | 307° |
| 2026-05-04 07:24 | 43.76028 | 28.43322 | 40023 ft | 503 kts | 298° |
| 2026-05-04 07:26 | 43.88349 | 28.08622 | 40042 ft | 501 kts | 297° |
| 2026-05-04 07:27 | 43.91415 | 27.99945 | 40043 ft | 501 kts | 297° |
| 2026-05-04 07:27 | 43.94451 | 27.91319 | 40050 ft | 500 kts | 297° |
| 2026-05-04 07:28 | 43.97514 | 27.82588 | 40057 ft | 499 kts | 297° |
| 2026-05-04 07:28 | 44.00529 | 27.73972 | 40057 ft | 499 kts | 297° |
| 2026-05-04 07:29 | 44.03548 | 27.65311 | 40057 ft | 498 kts | 297° |
| 2026-05-04 07:29 | 44.06563 | 27.56631 | 40061 ft | 497 kts | 297° |
| 2026-05-04 07:30 | 44.09562 | 27.47972 | 40065 ft | 497 kts | 297° |
| 2026-05-04 07:30 | 44.12553 | 27.39310 | 40064 ft | 496 kts | 297° |
| 2026-05-04 07:31 | 44.15535 | 27.30647 | 40064 ft | 496 kts | 297° |
| 2026-05-04 07:33 | 44.27351 | 26.96040 | 40073 ft | 494 kts | 297° |
| 2026-05-04 07:33 | 44.30287 | 26.87373 | 40073 ft | 494 kts | 297° |
| 2026-05-04 07:34 | 44.33217 | 26.78691 | 40077 ft | 493 kts | 297° |
| 2026-05-04 07:34 | 44.36135 | 26.70020 | 40074 ft | 493 kts | 297° |
| 2026-05-04 07:35 | 44.39047 | 26.61339 | 40074 ft | 492 kts | 297° |
| 2026-05-04 07:35 | 44.41949 | 26.52660 | 40077 ft | 493 kts | 297° |
| 2026-05-04 07:36 | 44.44829 | 26.44019 | 40074 ft | 493 kts | 297° |
| 2026-05-04 07:38 | 44.56382 | 26.09069 | 40102 ft | 495 kts | 297° |
| 2026-05-04 07:38 | 44.59264 | 26.00275 | 40102 ft | 496 kts | 297° |
| 2026-05-04 07:39 | 44.62143 | 25.91463 | 40097 ft | 497 kts | 297° |
| 2026-05-04 07:39 | 44.65016 | 25.82640 | 40092 ft | 497 kts | 297° |
| 2026-05-04 07:40 | 44.67889 | 25.73788 | 40083 ft | 497 kts | 296° |
| 2026-05-04 07:40 | 44.70749 | 25.64947 | 40075 ft | 497 kts | 296° |
| 2026-05-04 07:41 | 44.73603 | 25.56093 | 40070 ft | 497 kts | 296° |
| 2026-05-04 07:41 | 44.76430 | 25.47291 | 40070 ft | 496 kts | 296° |
| 2026-05-04 07:42 | 44.79266 | 25.38432 | 40075 ft | 496 kts | 296° |
| 2026-05-04 07:42 | 44.82093 | 25.29574 | 40073 ft | 496 kts | 296° |
| 2026-05-04 07:43 | 44.84908 | 25.20718 | 40072 ft | 495 kts | 296° |
| 2026-05-04 07:43 | 44.87721 | 25.11844 | 40074 ft | 495 kts | 296° |
| 2026-05-04 07:44 | 44.90522 | 25.02976 | 40074 ft | 495 kts | 296° |
| 2026-05-04 07:44 | 44.93311 | 24.94114 | 40078 ft | 494 kts | 296° |
| 2026-05-04 07:45 | 44.96095 | 24.85239 | 40077 ft | 494 kts | 296° |
| 2026-05-04 07:45 | 44.98870 | 24.76363 | 40080 ft | 494 kts | 296° |
| 2026-05-04 07:46 | 45.01633 | 24.67490 | 40084 ft | 493 kts | 296° |
| 2026-05-04 07:46 | 45.04387 | 24.58619 | 40087 ft | 493 kts | 296° |
| 2026-05-04 07:47 | 45.07115 | 24.49806 | 40091 ft | 492 kts | 296° |
| 2026-05-04 07:49 | 45.18010 | 24.14279 | 40095 ft | 491 kts | 295° |
| 2026-05-04 07:49 | 45.20720 | 24.05368 | 40096 ft | 491 kts | 295° |
| 2026-05-04 07:50 | 45.23424 | 23.96447 | 40102 ft | 492 kts | 295° |
| 2026-05-04 07:50 | 45.26115 | 23.87529 | 40105 ft | 492 kts | 295° |
| 2026-05-04 07:51 | 45.28808 | 23.78575 | 40106 ft | 493 kts | 295° |
| 2026-05-04 07:51 | 45.31477 | 23.69670 | 40111 ft | 493 kts | 295° |
| 2026-05-04 07:52 | 45.34035 | 23.60623 | 40109 ft | 493 kts | 294° |
| 2026-05-04 07:52 | 45.36474 | 23.51491 | 40118 ft | 493 kts | 293° |
| 2026-05-04 07:54 | 45.46257 | 23.15120 | 40132 ft | 490 kts | 293° |
| 2026-05-04 07:55 | 45.48687 | 23.06039 | 40135 ft | 490 kts | 293° |
| 2026-05-04 07:55 | 45.51106 | 22.96967 | 40136 ft | 489 kts | 293° |
| 2026-05-04 07:56 | 45.53515 | 22.87898 | 40136 ft | 489 kts | 293° |
| 2026-05-04 07:56 | 45.55914 | 22.78829 | 40144 ft | 488 kts | 293° |
| 2026-05-04 07:57 | 45.58307 | 22.69748 | 40144 ft | 487 kts | 293° |
| 2026-05-04 07:57 | 45.60682 | 22.60696 | 40144 ft | 486 kts | 293° |
| 2026-05-04 07:58 | 45.63037 | 22.51693 | 40149 ft | 486 kts | 293° |
| 2026-05-04 07:58 | 45.65390 | 22.42660 | 40147 ft | 484 kts | 293° |
| 2026-05-04 07:59 | 45.67338 | 22.35156 | 40154 ft | 483 kts | 293° |
| 2026-05-04 07:59 | 45.69669 | 22.26141 | 40154 ft | 482 kts | 293° |
| 2026-05-04 08:00 | 45.71986 | 22.17150 | 40156 ft | 481 kts | 292° |
| 2026-05-04 08:02 | 45.81141 | 21.81274 | 40159 ft | 478 kts | 292° |
| 2026-05-04 08:02 | 45.83409 | 21.72300 | 40176 ft | 478 kts | 292° |
| 2026-05-04 08:03 | 45.85668 | 21.63323 | 40177 ft | 478 kts | 292° |
| 2026-05-04 08:03 | 45.87917 | 21.54351 | 40170 ft | 477 kts | 292° |
| 2026-05-04 08:04 | 45.90155 | 21.45391 | 40185 ft | 477 kts | 292° |
| 2026-05-04 08:04 | 45.92390 | 21.36410 | 40182 ft | 477 kts | 292° |
| 2026-05-04 08:05 | 45.94600 | 21.27491 | 40173 ft | 477 kts | 292° |
| 2026-05-04 08:05 | 45.96815 | 21.18516 | 40176 ft | 477 kts | 292° |
| 2026-05-04 08:06 | 45.99025 | 21.09528 | 40177 ft | 476 kts | 292° |
| 2026-05-04 08:06 | 46.01224 | 21.00545 | 40174 ft | 476 kts | 292° |
| 2026-05-04 08:08 | 46.09932 | 20.64623 | 40162 ft | 475 kts | 291° |
| 2026-05-04 08:11 | 46.19386 | 20.24079 | 40161 ft | 474 kts | 290° |
| 2026-05-04 08:11 | 46.22354 | 20.10444 | 40156 ft | 474 kts | 290° |
| 2026-05-04 08:12 | 46.24337 | 20.01379 | 40149 ft | 474 kts | 290° |
| 2026-05-04 08:12 | 46.26321 | 19.92288 | 40147 ft | 474 kts | 290° |
| 2026-05-04 08:13 | 46.28296 | 19.83201 | 40147 ft | 474 kts | 289° |
| 2026-05-04 08:13 | 46.30263 | 19.74103 | 40150 ft | 474 kts | 289° |
| 2026-05-04 08:14 | 46.32210 | 19.65062 | 40144 ft | 474 kts | 289° |
| 2026-05-04 08:16 | 46.39979 | 19.28577 | 40151 ft | 473 kts | 289° |
| 2026-05-04 08:16 | 46.41888 | 19.19510 | 40146 ft | 473 kts | 288° |
| 2026-05-04 08:17 | 46.43803 | 19.10376 | 40147 ft | 473 kts | 288° |
| 2026-05-04 08:17 | 46.45708 | 19.01244 | 40142 ft | 473 kts | 288° |
| 2026-05-04 08:19 | 46.53249 | 18.64696 | 40136 ft | 472 kts | 288° |
| 2026-05-04 08:20 | 46.55111 | 18.55565 | 40138 ft | 471 kts | 288° |
| 2026-05-04 08:20 | 46.56966 | 18.46428 | 40133 ft | 471 kts | 288° |
| 2026-05-04 08:21 | 46.58801 | 18.37358 | 40131 ft | 470 kts | 288° |
| 2026-05-04 08:21 | 46.60639 | 18.28223 | 40130 ft | 470 kts | 288° |
| 2026-05-04 08:22 | 46.62465 | 18.19099 | 40129 ft | 470 kts | 287° |
| 2026-05-04 08:24 | 46.69683 | 17.82642 | 40130 ft | 468 kts | 287° |
| 2026-05-04 08:24 | 46.71466 | 17.73524 | 40124 ft | 468 kts | 287° |
| 2026-05-04 08:25 | 46.73246 | 17.64383 | 40121 ft | 468 kts | 287° |
| 2026-05-04 08:25 | 46.75016 | 17.55249 | 40127 ft | 468 kts | 287° |
| 2026-05-04 08:27 | 46.82002 | 17.18761 | 40127 ft | 467 kts | 286° |
| 2026-05-04 08:28 | 46.83731 | 17.09623 | 40127 ft | 466 kts | 286° |
| 2026-05-04 08:28 | 46.85449 | 17.00495 | 40121 ft | 466 kts | 286° |
| 2026-05-04 08:29 | 46.87159 | 16.91367 | 40117 ft | 465 kts | 286° |
| 2026-05-04 08:31 | 46.93919 | 16.54847 | 40102 ft | 466 kts | 285° |
| 2026-05-04 08:33 | 47.00537 | 16.18206 | 40097 ft | 465 kts | 283° |
| 2026-05-04 08:35 | 47.05812 | 15.81204 | 40093 ft | 463 kts | 282° |
| 2026-05-04 08:35 | 47.07143 | 15.71948 | 40097 ft | 463 kts | 282° |
| 2026-05-04 08:37 | 47.11727 | 15.39576 | 40099 ft | 462 kts | 282° |
| 2026-05-04 08:38 | 47.13011 | 15.30381 | 40098 ft | 462 kts | 281° |
| 2026-05-04 08:38 | 47.14291 | 15.21147 | 40097 ft | 462 kts | 281° |
| 2026-05-04 08:40 | 47.19343 | 14.84146 | 40101 ft | 461 kts | 281° |
| 2026-05-04 08:41 | 47.20585 | 14.74896 | 40103 ft | 461 kts | 281° |
| 2026-05-04 08:41 | 47.21821 | 14.65636 | 40102 ft | 461 kts | 281° |
| 2026-05-04 08:42 | 47.23047 | 14.56393 | 40101 ft | 461 kts | 280° |
| 2026-05-04 08:42 | 47.24259 | 14.47190 | 40096 ft | 460 kts | 280° |
| 2026-05-04 08:43 | 47.25471 | 14.37929 | 40095 ft | 460 kts | 280° |
| 2026-05-04 08:43 | 47.26674 | 14.28671 | 40087 ft | 460 kts | 280° |
| 2026-05-04 08:44 | 47.27871 | 14.19406 | 40081 ft | 460 kts | 280° |
| 2026-05-04 08:46 | 47.32586 | 13.82281 | 40080 ft | 462 kts | 279° |
| 2026-05-04 08:46 | 47.33739 | 13.73041 | 40071 ft | 461 kts | 279° |
| 2026-05-04 08:47 | 47.34893 | 13.63732 | 40067 ft | 461 kts | 279° |
| 2026-05-04 08:47 | 47.36041 | 13.54407 | 40065 ft | 462 kts | 279° |
| 2026-05-04 08:48 | 47.37180 | 13.45084 | 40058 ft | 462 kts | 279° |
| 2026-05-04 08:48 | 47.38120 | 13.37344 | 40055 ft | 462 kts | 279° |
| 2026-05-04 08:49 | 47.39247 | 13.28001 | 40055 ft | 462 kts | 279° |
| 2026-05-04 08:50 | 47.43137 | 12.95233 | 40035 ft | 464 kts | 278° |
| 2026-05-04 08:51 | 47.44233 | 12.85842 | 40037 ft | 464 kts | 278° |
| 2026-05-04 08:51 | 47.45323 | 12.76443 | 40037 ft | 464 kts | 278° |
| 2026-05-04 08:52 | 47.46399 | 12.67089 | 40038 ft | 464 kts | 278° |
| 2026-05-04 08:52 | 47.47474 | 12.57680 | 40035 ft | 464 kts | 278° |
| 2026-05-04 08:54 | 47.51697 | 12.19973 | 40043 ft | 464 kts | 278° |
| 2026-05-04 08:55 | 47.52732 | 12.10552 | 40042 ft | 464 kts | 278° |
| 2026-05-04 08:55 | 47.53762 | 12.01114 | 40043 ft | 464 kts | 278° |
| 2026-05-04 09:01 | 47.65582 | 11.09330 | 40038 ft | 464 kts | 279° |
| 2026-05-04 09:01 | 47.66750 | 10.99917 | 40043 ft | 465 kts | 278° |
| 2026-05-04 09:02 | 47.67914 | 10.90472 | 40048 ft | 465 kts | 278° |
| 2026-05-04 09:02 | 47.69061 | 10.81090 | 40044 ft | 465 kts | 278° |
| 2026-05-04 09:03 | 47.70209 | 10.71643 | 40034 ft | 465 kts | 278° |
| 2026-05-04 09:03 | 47.71351 | 10.62182 | 40038 ft | 466 kts | 278° |
| 2026-05-04 09:04 | 47.72482 | 10.52743 | 39619 ft | 461 kts | 278° |
| 2026-05-04 09:04 | 47.73041 | 10.48051 | 39045 ft | 460 kts | 278° |
| 2026-05-04 09:04 | 47.73546 | 10.43798 | 38347 ft | 462 kts | 278° |
| 2026-05-04 09:04 | 47.74095 | 10.39135 | 37619 ft | 461 kts | 277° |
| 2026-05-04 09:05 | 47.74434 | 10.34424 | 37000 ft | 457 kts | 270° |
| 2026-05-04 09:05 | 47.74462 | 10.29722 | 36343 ft | 454 kts | 267° |
| 2026-05-04 09:05 | 47.74419 | 10.25870 | 35770 ft | 453 kts | 266° |
| 2026-05-04 09:05 | 47.74328 | 10.21261 | 35041 ft | 453 kts | 266° |
| 2026-05-04 09:06 | 47.74212 | 10.16560 | 34252 ft | 455 kts | 265° |
| 2026-05-04 09:07 | 47.73358 | 9.83616 | 28289 ft | 455 kts | 266° |
| 2026-05-04 09:08 | 47.73242 | 9.78926 | 27632 ft | 450 kts | 266° |
| 2026-05-04 09:08 | 47.73123 | 9.74310 | 26976 ft | 447 kts | 265° |
| 2026-05-04 09:08 | 47.73000 | 9.69706 | 26320 ft | 443 kts | 265° |
| 2026-05-04 09:08 | 47.72879 | 9.65210 | 25669 ft | 440 kts | 265° |
| 2026-05-04 09:09 | 47.72755 | 9.60610 | 25011 ft | 438 kts | 265° |
| 2026-05-04 09:09 | 47.72628 | 9.56102 | 24432 ft | 437 kts | 265° |
| 2026-05-04 09:09 | 47.72497 | 9.51584 | 23792 ft | 439 kts | 265° |
| 2026-05-04 09:09 | 47.72302 | 9.47068 | 23002 ft | 436 kts | 261° |
| 2026-05-04 09:10 | 47.71583 | 9.42739 | 22329 ft | 429 kts | 246° |
| 2026-05-04 09:10 | 47.70168 | 9.38951 | 21688 ft | 422 kts | 233° |
| 2026-05-04 09:10 | 47.68371 | 9.35558 | 21042 ft | 417 kts | 229° |
| 2026-05-04 09:10 | 47.66529 | 9.32254 | 20404 ft | 412 kts | 229° |
| 2026-05-04 09:11 | 47.64714 | 9.28993 | 19768 ft | 408 kts | 229° |
| 2026-05-04 09:11 | 47.62916 | 9.25749 | 19124 ft | 404 kts | 229° |
| 2026-05-04 09:11 | 47.61150 | 9.22542 | 18485 ft | 401 kts | 230° |
| 2026-05-04 09:11 | 47.59627 | 9.19070 | 17767 ft | 401 kts | 242° |
| 2026-05-04 09:12 | 47.58758 | 9.15149 | 17085 ft | 401 kts | 255° |
| 2026-05-04 09:12 | 47.58247 | 9.11115 | 16418 ft | 397 kts | 258° |
| 2026-05-04 09:14 | 47.58793 | 8.83294 | 11698 ft | 373 kts | 260° |
| 2026-05-04 09:14 | 47.58044 | 8.79691 | 11266 ft | 359 kts | 240° |
| 2026-05-04 09:14 | 47.56738 | 8.76671 | 11130 ft | 340 kts | 232° |
| 2026-05-04 09:14 | 47.55371 | 8.73917 | 10998 ft | 323 kts | 232° |
| 2026-05-04 09:15 | 47.54061 | 8.71299 | 10873 ft | 309 kts | 231° |
| 2026-05-04 09:15 | 47.52812 | 8.68801 | 10742 ft | 296 kts | 231° |
| 2026-05-04 09:15 | 47.51613 | 8.66392 | 10611 ft | 284 kts | 231° |
| 2026-05-04 09:15 | 47.50464 | 8.64083 | 10482 ft | 273 kts | 231° |
| 2026-05-04 09:17 | 47.46148 | 8.45660 | 8267 ft | 265 kts | 315° |
| 2026-05-04 09:18 | 47.47673 | 8.44175 | 7953 ft | 263 kts | 339° |
| 2026-05-04 09:18 | 47.49441 | 8.43606 | 7653 ft | 259 kts | 356° |
| 2026-05-04 09:18 | 47.51228 | 8.43424 | 7364 ft | 256 kts | 358° |
| 2026-05-04 09:18 | 47.52974 | 8.43273 | 7088 ft | 254 kts | 358° |
| 2026-05-04 09:19 | 47.54728 | 8.43107 | 6828 ft | 251 kts | 358° |
| 2026-05-04 09:19 | 47.56465 | 8.42931 | 6612 ft | 248 kts | 358° |
| 2026-05-04 09:19 | 47.58162 | 8.42751 | 6471 ft | 242 kts | 358° |
| 2026-05-04 09:19 | 47.59840 | 8.42566 | 6329 ft | 241 kts | 358° |
| 2026-05-04 09:20 | 47.61502 | 8.42386 | 6095 ft | 238 kts | 358° |
| 2026-05-04 09:20 | 47.63153 | 8.42212 | 5791 ft | 237 kts | 358° |
| 2026-05-04 09:20 | 47.64798 | 8.42002 | 5488 ft | 237 kts | 353° |
| 2026-05-04 09:20 | 47.66342 | 8.41190 | 5202 ft | 238 kts | 328° |
| 2026-05-04 09:21 | 47.67468 | 8.39408 | 4918 ft | 239 kts | 299° |
| 2026-05-04 09:21 | 47.67887 | 8.37049 | 4648 ft | 239 kts | 271° |
| 2026-05-04 09:21 | 47.67514 | 8.34668 | 4359 ft | 239 kts | 243° |
| 2026-05-04 09:21 | 47.66450 | 8.32833 | 4065 ft | 239 kts | 214° |
| 2026-05-04 09:22 | 47.64926 | 8.31946 | 3971 ft | 238 kts | 187° |
| 2026-05-04 09:22 | 47.63298 | 8.32182 | 3947 ft | 235 kts | 160° |
| 2026-05-04 09:22 | 47.61961 | 8.33433 | 3953 ft | 222 kts | 133° |
| 2026-05-04 09:22 | 47.61066 | 8.35183 | 3949 ft | 210 kts | 122° |
| 2026-05-04 09:23 | 47.60257 | 8.36913 | 3942 ft | 196 kts | 129° |
| 2026-05-04 09:23 | 47.59348 | 8.38313 | 3984 ft | 183 kts | 135° |
| 2026-05-04 09:23 | 47.58428 | 8.39604 | 3969 ft | 183 kts | 135° |
| 2026-05-04 09:23 | 47.57497 | 8.40900 | 3957 ft | 183 kts | 135° |
| 2026-05-04 09:25 | 47.51311 | 8.49373 | 2233 ft | 153 kts | 135° |
| 2026-05-04 09:25 | 47.50543 | 8.50407 | 2027 ft | 147 kts | 138° |
| 2026-05-04 09:26 | 47.49792 | 8.51428 | 1844 ft | 147 kts | 136° |
| 2026-05-04 09:26 | 47.49052 | 8.52448 | 1641 ft | 145 kts | 136° |
| 2026-05-04 09:26 | 47.48325 | 8.53445 | 1461 ft | 143 kts | 136° |
| 2026-05-04 09:26 | 47.47618 | 8.54417 | 1411 ft | 125 kts | 137° |
| 2026-05-04 09:27 | 47.47091 | 8.55131 | 1407 ft | 79 kts | 137° |
| 2026-05-04 09:27 | 47.46804 | 8.55520 | 1412 ft | 36 kts | 140° |
| 2026-05-04 09:27 | 47.46586 | 8.55681 | 1412 ft | 35 kts | 163° |
| 2026-05-04 09:27 | 47.46407 | 8.55747 | 1410 ft | 24 kts | 157° |
| 2026-05-04 09:28 | 47.46284 | 8.55891 | 1413 ft | 21 kts | 137° |
| 2026-05-04 09:28 | 47.46208 | 8.55985 | 1412 ft | 13 kts | 153° |
| 2026-05-04 09:28 | 47.46111 | 8.55992 | 1406 ft | 15 kts | 185° |
| 2026-05-04 09:28 | 47.46010 | 8.55978 | 1407 ft | 13 kts | 187° |
| 2026-05-04 09:29 | 47.45941 | 8.55901 | 1412 ft | 14 kts | 262° |
| 2026-05-04 09:29 | 47.45946 | 8.55742 | 1404 ft | 17 kts | 275° |
| 2026-05-04 09:29 | 47.45960 | 8.55569 | 1405 ft | 10 kts | 277° |
| 2026-05-04 09:29 | 47.45983 | 8.55526 | 1411 ft | 5 kts | 340° |
| 2026-05-04 09:30 | 47.46021 | 8.55525 | 1410 ft | 3 kts | 3° |
| 2026-05-04 09:30 | 47.46040 | 8.55527 | 1412 ft | 3 kts | 6° |
| 2026-05-04 09:30 | 47.46050 | 8.55529 | 1411 ft | 1 kts | 5° |
| 2026-05-04 09:30 | 47.46051 | 8.55529 | 1410 ft | 0 kts | 5° |